createdAt,value
2022-11-22T00:01:19.141Z,11.93
2022-11-22T00:03:45.814Z,8.85
2022-11-22T00:06:12.527Z,5.78
2022-11-22T00:08:39.430Z,4.15
2022-11-22T00:11:06.123Z,11.73
2022-11-22T00:13:32.790Z,8.27
2022-11-22T00:16:03.463Z,9.40
2022-11-22T00:18:30.235Z,7.32
2022-11-22T00:20:56.983Z,8.18
2022-11-22T00:23:23.766Z,4.85
2022-11-22T00:25:50.477Z,7.47
2022-11-22T00:28:17.146Z,8.93
2022-11-22T00:30:43.915Z,2.80
2022-11-22T00:33:10.601Z,5.05
2022-11-22T00:35:37.824Z,8.88
2022-11-22T00:38:04.546Z,9.20
2022-11-22T00:40:31.294Z,5.22
2022-11-22T00:42:58.063Z,5.15
2022-11-22T00:45:24.771Z,3.95
2022-11-22T00:47:51.590Z,5.50
2022-11-22T00:50:18.352Z,3.10
2022-11-22T00:52:45.098Z,4.70
2022-11-22T00:55:11.753Z,4.57
2022-11-22T00:57:38.532Z,8.05
2022-11-22T01:00:06.554Z,25.33
2022-11-22T01:02:33.256Z,11.02
2022-11-22T01:04:59.937Z,7.88
2022-11-22T01:07:26.706Z,7.15
2022-11-22T01:09:53.507Z,1.67
2022-11-22T01:12:20.286Z,3.72
2022-11-22T01:14:46.968Z,3.55
2022-11-22T01:17:13.668Z,6.28
2022-11-22T01:19:40.420Z,3.80
2022-11-22T01:22:07.090Z,8.90
2022-11-22T01:24:33.782Z,3.20
2022-11-22T01:27:00.433Z,10.93
2022-11-22T01:29:27.289Z,5.35
2022-11-22T01:31:54.135Z,9.93
2022-11-22T01:34:20.823Z,2.70
2022-11-22T01:36:47.711Z,8.00
2022-11-22T01:39:15.189Z,15.98
2022-11-22T01:41:41.934Z,4.43
2022-11-22T01:44:30.986Z,5.90
2022-11-22T01:47:02.473Z,4.13
2022-11-22T01:49:32.290Z,7.47
2022-11-22T01:52:05.081Z,5.15
2022-11-22T01:54:33.978Z,8.80
2022-11-22T01:57:04.681Z,13.52
2022-11-22T01:59:32.516Z,4.30
2022-11-22T02:01:59.979Z,10.45
2022-11-22T02:04:26.807Z,5.50
2022-11-22T02:07:03.911Z,4.47
2022-11-22T02:09:30.951Z,7.18
2022-11-22T02:12:00.762Z,7.40
2022-11-22T02:14:27.769Z,4.13
2022-11-22T02:16:54.507Z,9.10
2022-11-22T02:19:45.621Z,5.47
2022-11-22T02:22:21.987Z,2.78
2022-11-22T02:25:21.125Z,2.05
2022-11-22T02:27:48.640Z,3.30
2022-11-22T02:30:15.608Z,6.93
2022-11-22T02:32:42.489Z,4.40
2022-11-22T02:35:15.943Z,5.65
2022-11-22T02:37:42.790Z,7.50
2022-11-22T02:40:10.024Z,2.58
2022-11-22T02:42:36.841Z,4.82
2022-11-22T02:45:03.731Z,2.05
2022-11-22T02:47:30.443Z,8.40
2022-11-22T02:49:57.135Z,7.57
2022-11-22T02:52:23.860Z,5.03
2022-11-22T02:54:50.597Z,5.80
2022-11-22T02:57:17.282Z,2.60
2022-11-22T02:59:44.043Z,2.55
2022-11-22T03:02:10.725Z,2.45
2022-11-22T03:04:37.536Z,6.18
2022-11-22T03:07:04.654Z,9.35
2022-11-22T03:09:32.323Z,3.08
2022-11-22T03:11:59.295Z,9.40
2022-11-22T03:14:26.377Z,3.05
2022-11-22T03:16:53.109Z,7.38
2022-11-22T03:19:20.108Z,9.70
2022-11-22T03:21:46.841Z,3.63
2022-11-22T03:24:13.609Z,4.40
2022-11-22T03:26:40.297Z,4.07
2022-11-22T03:29:07.091Z,5.15
2022-11-22T03:31:33.833Z,6.97
2022-11-22T03:34:00.565Z,6.18
2022-11-22T03:36:27.234Z,2.10
2022-11-22T03:38:53.954Z,6.80
2022-11-22T03:41:20.695Z,4.50
2022-11-22T03:43:47.418Z,3.95
2022-11-22T03:46:17.589Z,3.10
2022-11-22T03:48:44.333Z,3.88
2022-11-22T03:51:12.121Z,4.15
2022-11-22T03:53:39.031Z,2.63
2022-11-22T03:56:05.941Z,3.75
2022-11-22T03:58:33.119Z,1.83
2022-11-22T04:01:00.014Z,7.93
2022-11-22T04:03:26.756Z,9.45
2022-11-22T04:05:53.473Z,2.53
2022-11-22T04:08:20.224Z,4.65
2022-11-22T04:10:49.230Z,3.83
2022-11-22T04:13:16.306Z,9.90
2022-11-22T04:15:42.970Z,5.13
2022-11-22T04:18:10.799Z,3.92
2022-11-22T04:20:55.950Z,2.95
2022-11-22T04:23:23.493Z,1.65
2022-11-22T04:25:54.373Z,3.25
2022-11-22T04:28:35.253Z,3.22
2022-11-22T04:31:28.512Z,10.77
2022-11-22T04:33:55.266Z,3.45
2022-11-22T04:36:21.987Z,3.85
2022-11-22T04:38:48.648Z,4.47
2022-11-22T04:41:15.306Z,4.80
2022-11-22T04:44:00.767Z,6.07
2022-11-22T04:46:27.468Z,5.93
2022-11-22T04:48:54.344Z,4.82
2022-11-22T04:51:39.449Z,6.22
2022-11-22T04:54:06.141Z,1.70
2022-11-22T04:56:32.924Z,1.92
2022-11-22T04:58:59.626Z,6.43
2022-11-22T05:01:26.319Z,6.05
2022-11-22T05:03:53.053Z,8.52
2022-11-22T05:06:19.777Z,8.25
2022-11-22T05:08:46.481Z,9.80
2022-11-22T05:11:13.211Z,9.38
2022-11-22T05:13:42.184Z,5.63
2022-11-22T05:16:10.402Z,2.47
2022-11-22T05:18:37.288Z,10.05
2022-11-22T05:21:08.413Z,7.82
2022-11-22T05:23:53.568Z,10.25
2022-11-22T05:26:30.529Z,9.65
2022-11-22T05:29:00.230Z,2.35
2022-11-22T05:31:27.655Z,3.28
2022-11-22T05:33:56.336Z,4.70
2022-11-22T05:36:23.259Z,8.98
2022-11-22T05:38:50.286Z,4.63
2022-11-22T05:41:17.214Z,2.85
2022-11-22T05:43:44.146Z,5.25
2022-11-22T05:46:16.206Z,3.78
2022-11-22T05:48:46.467Z,18.95
2022-11-22T05:51:14.663Z,9.13
2022-11-22T05:53:42.188Z,7.10
2022-11-22T05:56:09.463Z,8.90
2022-11-22T05:58:36.226Z,14.82
2022-11-22T06:01:07.401Z,2.47
2022-11-22T06:03:35.681Z,6.80
2022-11-22T06:06:03.280Z,3.85
2022-11-22T06:08:31.139Z,3.60
2022-11-22T06:11:13.968Z,4.45
2022-11-22T06:13:41.661Z,3.80
2022-11-22T06:16:08.835Z,3.80
2022-11-22T06:18:35.748Z,8.93
2022-11-22T06:21:04.441Z,5.18
2022-11-22T06:23:31.441Z,3.85
2022-11-22T06:25:59.263Z,5.47
2022-11-22T06:28:27.052Z,7.72
2022-11-22T06:30:53.764Z,0.63
2022-11-22T06:33:20.682Z,3.15
2022-11-22T06:35:47.415Z,3.25
2022-11-22T06:38:14.132Z,2.65
2022-11-22T06:40:40.876Z,2.17
2022-11-22T06:43:07.576Z,1.45
2022-11-22T06:45:34.267Z,3.97
2022-11-22T06:48:00.996Z,2.30
2022-11-22T06:50:27.687Z,2.97
2022-11-22T06:52:54.368Z,2.95
2022-11-22T06:55:48.537Z,3.15
2022-11-22T06:58:07.809Z,1.98
2022-11-22T07:00:34.491Z,3.83
2022-11-22T07:03:01.429Z,5.00
2022-11-22T07:05:28.087Z,7.60
2022-11-22T07:08:02.823Z,5.57
2022-11-22T07:10:35.996Z,3.22
2022-11-22T07:13:02.769Z,6.82
2022-11-22T07:15:29.747Z,6.95
2022-11-22T07:17:56.575Z,3.38
2022-11-22T07:20:23.482Z,4.57
2022-11-22T07:22:50.167Z,3.63
2022-11-22T07:25:17.183Z,1.70
2022-11-22T07:27:44.050Z,4.97
2022-11-22T07:30:11.401Z,3.28
2022-11-22T07:32:38.186Z,4.75
2022-11-22T07:35:05.415Z,6.95
2022-11-22T07:37:32.276Z,3.67
2022-11-22T07:40:00.209Z,3.53
2022-11-22T07:42:26.914Z,12.30
2022-11-22T07:44:53.883Z,2.28
2022-11-22T07:47:23.104Z,7.20
2022-11-22T07:49:50.071Z,6.47
2022-11-22T07:52:16.747Z,7.00
2022-11-22T07:54:43.430Z,2.25
2022-11-22T07:57:10.184Z,4.18
2022-11-22T07:59:37.100Z,2.88
2022-11-22T08:02:03.931Z,5.60
2022-11-22T08:04:30.871Z,5.13
2022-11-22T08:06:57.658Z,3.88
2022-11-22T08:09:24.408Z,6.35
2022-11-22T08:11:51.114Z,6.22
2022-11-22T08:14:17.837Z,9.50
2022-11-22T08:16:45.941Z,2.38
2022-11-22T08:19:17.422Z,5.93
2022-11-22T08:21:48.283Z,3.05
2022-11-22T08:24:15.828Z,4.68
2022-11-22T08:26:43.280Z,2.50
2022-11-22T08:29:14.306Z,3.78
2022-11-22T08:31:41.527Z,1.88
2022-11-22T08:34:08.252Z,6.07
2022-11-22T08:36:35.016Z,7.93
2022-11-22T08:39:02.068Z,4.50
2022-11-22T08:41:28.774Z,2.60
2022-11-22T08:43:55.520Z,3.22
2022-11-22T08:46:22.336Z,4.85
2022-11-22T08:48:49.062Z,7.32
2022-11-22T08:51:15.811Z,2.50
2022-11-22T08:53:43.344Z,6.13
2022-11-22T08:56:14.265Z,3.60
2022-11-22T08:58:41.107Z,9.38
2022-11-22T09:01:17.889Z,3.03
2022-11-22T09:03:45.089Z,6.72
2022-11-22T09:09:30.086Z,3.97
2022-11-22T09:11:50.208Z,2.03
2022-11-22T09:14:17.169Z,2.85
2022-11-22T09:16:43.975Z,6.03
2022-11-22T09:19:10.652Z,4.13
2022-11-22T09:21:37.758Z,3.58
2022-11-22T09:24:04.826Z,4.22
2022-11-22T09:26:31.640Z,1.77
2022-11-22T09:28:58.354Z,4.15
2022-11-22T09:31:25.394Z,4.60
2022-11-22T09:33:52.239Z,4.32
2022-11-22T09:36:20.622Z,1.35
2022-11-22T09:38:47.418Z,3.90
2022-11-22T09:41:17.171Z,5.82
2022-11-22T09:44:12.242Z,5.03
2022-11-22T09:47:00.825Z,6.40
2022-11-22T09:49:43.688Z,7.50
2022-11-22T09:52:34.455Z,3.67
2022-11-22T09:55:04.144Z,4.35
2022-11-22T09:57:40.017Z,5.32
2022-11-22T10:00:21.747Z,1.40
2022-11-22T10:03:01.021Z,3.60
2022-11-22T10:05:46.553Z,4.65
2022-11-22T10:08:48.633Z,2.25
2022-11-22T10:11:21.480Z,1.75
2022-11-22T10:13:55.745Z,7.85
2022-11-22T10:16:41.256Z,1.13
2022-11-22T10:19:11.140Z,3.17
2022-11-22T10:21:37.824Z,5.10
2022-11-22T10:24:04.921Z,1.85
2022-11-22T10:26:35.279Z,4.38
2022-11-22T10:29:23.727Z,6.78
2022-11-22T10:32:02.897Z,8.13
2022-11-22T10:34:51.780Z,5.78
2022-11-22T10:37:18.428Z,5.78
2022-11-22T10:40:03.949Z,2.17
2022-11-22T10:42:56.245Z,4.30
2022-11-22T10:45:38.574Z,2.30
2022-11-22T10:48:21.163Z,9.43
2022-11-22T10:50:50.940Z,4.03
2022-11-22T10:53:43.327Z,4.05
2022-11-22T10:56:27.065Z,4.05
2022-11-22T10:59:14.256Z,8.60
2022-11-22T11:01:50.171Z,9.50
2022-11-22T11:04:16.896Z,8.60
2022-11-22T11:10:10.122Z,5.40
2022-11-22T11:12:50.231Z,6.25
2022-11-22T11:17:57.577Z,5.13
2022-11-22T11:20:35.403Z,6.60
2022-11-22T11:23:17.400Z,5.47
2022-11-22T11:25:48.282Z,6.13
2022-11-22T11:28:24.102Z,6.50
2022-11-22T11:30:58.451Z,5.53
2022-11-22T11:33:30.219Z,10.23
2022-11-22T11:36:02.894Z,9.65
2022-11-22T11:38:41.574Z,9.40
2022-11-22T11:41:43.249Z,7.03
2022-11-22T11:44:24.231Z,9.18
2022-11-22T11:46:50.887Z,6.68
2022-11-22T11:49:18.820Z,7.80
2022-11-22T11:52:04.622Z,5.68
2022-11-22T11:54:42.982Z,4.47
2022-11-22T11:57:19.476Z,4.32
2022-11-22T11:59:47.441Z,9.20
2022-11-22T12:02:36.563Z,9.88
2022-11-22T12:05:21.031Z,10.10
2022-11-22T12:07:49.196Z,4.47
2022-11-22T12:10:55.908Z,8.00
2022-11-22T12:16:43.314Z,8.50
2022-11-22T12:19:24.413Z,3.97
2022-11-22T12:22:12.070Z,12.57
2022-11-22T12:25:24.343Z,8.98
2022-11-22T12:27:39.889Z,7.82
2022-11-22T12:30:11.848Z,6.68
2022-11-22T12:32:41.828Z,4.93
2022-11-22T12:35:14.057Z,8.43
2022-11-22T12:37:50.279Z,5.45
2022-11-22T12:40:17.731Z,8.57
2022-11-22T12:42:47.837Z,8.02
2022-11-22T12:45:32.977Z,7.47
2022-11-22T12:48:03.281Z,6.43
2022-11-22T12:50:41.954Z,8.45
2022-11-22T12:53:13.380Z,12.25
2022-11-22T12:55:57.581Z,3.50
2022-11-22T12:58:40.729Z,3.92
2022-11-22T13:01:17.827Z,3.78
2022-11-22T13:04:11.298Z,5.45
2022-11-22T13:07:06.971Z,5.03
2022-11-22T13:09:35.506Z,4.57
2022-11-22T13:12:03.934Z,5.43
2022-11-22T13:14:38.522Z,5.70
2022-11-22T13:17:09.178Z,11.10
2022-11-22T13:19:49.409Z,5.28
2022-11-22T13:22:42.384Z,3.72
2022-11-22T13:25:14.855Z,6.47
2022-11-22T13:27:46.354Z,4.43
2022-11-22T13:30:33.625Z,3.88
2022-11-22T13:33:00.858Z,12.57
2022-11-22T13:35:34.861Z,5.63
2022-11-22T13:40:35.053Z,6.47
2022-11-22T13:43:19.572Z,3.38
2022-11-22T13:45:59.316Z,3.80
2022-11-22T13:48:41.241Z,6.57
2022-11-22T13:51:09.261Z,3.80
2022-11-22T13:53:40.489Z,7.05
2022-11-22T13:56:16.438Z,6.57
2022-11-22T13:58:52.164Z,12.60
2022-11-22T14:01:34.416Z,4.82
2022-11-22T14:04:16.709Z,9.90
2022-11-22T14:07:09.391Z,5.22
2022-11-22T14:09:43.949Z,7.38
2022-11-22T14:12:10.604Z,5.97
2022-11-22T14:15:05.266Z,5.50
2022-11-22T14:20:20.361Z,7.07
2022-11-22T14:22:51.548Z,5.70
2022-11-22T14:25:33.382Z,5.80
2022-11-22T14:28:31.171Z,6.10
2022-11-22T14:30:58.070Z,7.63
2022-11-22T14:33:26.094Z,4.43
2022-11-22T14:36:08.103Z,5.30
2022-11-22T14:38:44.134Z,7.75
2022-11-22T14:41:30.320Z,4.65
2022-11-22T14:44:22.912Z,3.90
2022-11-22T14:46:58.531Z,2.88
2022-11-22T14:49:37.447Z,3.92
2022-11-22T14:52:04.241Z,6.85
2022-11-22T14:54:48.500Z,3.88
2022-11-22T14:57:17.329Z,6.82
2022-11-22T14:59:56.062Z,8.93
2022-11-22T15:03:00.055Z,8.15
2022-11-22T15:09:11.238Z,4.53
2022-11-22T15:09:12.949Z,5.65
2022-11-22T15:11:36.410Z,5.00
2022-11-22T15:14:13.381Z,5.53
2022-11-22T15:57:37.337Z,8.73
2022-11-22T16:00:10.386Z,7.32
2022-11-22T16:02:39.372Z,8.23
2022-11-22T16:06:06.634Z,13.25
2022-11-22T16:07:54.240Z,12.95
2022-11-22T16:10:38.513Z,6.25
2022-11-22T16:13:36.029Z,8.68
2022-11-22T16:16:11.961Z,7.63
2022-11-22T16:18:40.711Z,7.78
2022-11-22T16:21:11.187Z,13.38
2022-11-22T16:23:38.707Z,9.13
2022-11-22T16:26:19.835Z,14.77
2022-11-22T16:28:50.825Z,11.45
2022-11-22T16:31:34.031Z,13.65
2022-11-22T16:34:01.652Z,9.87
2022-11-22T16:36:32.409Z,8.77
2022-11-22T16:38:59.577Z,8.73
2022-11-22T16:41:27.784Z,10.95
2022-11-22T16:44:00.575Z,16.77
2022-11-22T16:46:27.352Z,19.42
2022-11-22T16:48:55.002Z,10.73
2022-11-22T16:51:29.189Z,10.13
2022-11-22T16:53:58.799Z,11.45
2022-11-22T16:56:27.216Z,13.13
2022-11-22T16:58:55.499Z,9.77
2022-11-22T17:01:24.496Z,11.25
2022-11-22T17:03:53.278Z,9.73
2022-11-22T17:06:25.095Z,14.88
2022-11-22T17:08:53.209Z,7.28
2022-11-22T17:11:23.493Z,10.07
2022-11-22T17:13:50.460Z,25.85
2022-11-22T17:16:21.005Z,23.00
2022-11-22T17:18:48.260Z,13.43
2022-11-22T17:21:17.820Z,14.18
2022-11-22T17:23:44.513Z,12.02
2022-11-22T17:26:11.271Z,50.13
2022-11-22T17:28:37.982Z,46.78
2022-11-22T17:31:09.641Z,27.38
2022-11-22T17:33:36.441Z,25.38
2022-11-22T17:36:03.254Z,18.80
2022-11-22T17:38:29.944Z,12.82
2022-11-22T17:41:00.252Z,12.32
2022-11-22T17:43:27.059Z,12.02
2022-11-22T17:45:53.948Z,9.27
2022-11-22T17:48:20.718Z,13.43
2022-11-22T17:50:47.391Z,10.25
2022-11-22T17:53:14.085Z,15.73
2022-11-22T17:56:09.125Z,13.32
2022-11-22T17:58:27.566Z,9.38
2022-11-22T18:01:03.305Z,12.70
2022-11-22T18:03:30.208Z,10.18
2022-11-22T18:05:56.963Z,14.25
2022-11-22T18:08:23.877Z,11.63
2022-11-22T18:10:54.510Z,9.25
2022-11-22T18:13:22.499Z,11.60
2022-11-22T18:15:55.375Z,7.80
2022-11-22T18:18:54.472Z,16.42
2022-11-22T18:21:17.232Z,9.00
2022-11-22T18:23:45.154Z,8.93
2022-11-22T18:29:32.539Z,12.52
2022-11-22T18:31:54.270Z,9.30
2022-11-22T18:34:22.164Z,10.80
2022-11-22T18:36:55.214Z,11.60
2022-11-22T18:39:22.887Z,10.60
2022-11-22T18:41:50.103Z,15.38
2022-11-22T18:44:17.078Z,10.95
2022-11-22T18:46:43.974Z,13.93
2022-11-22T18:49:10.975Z,16.52
2022-11-22T18:51:37.891Z,15.45
2022-11-22T18:54:05.016Z,17.58
2022-11-22T18:56:31.843Z,19.08
2022-11-22T18:58:59.316Z,17.80
2022-11-22T19:01:26.473Z,12.55
2022-11-22T19:03:54.031Z,12.60
2022-11-22T19:06:21.251Z,16.92
2022-11-22T19:08:48.356Z,11.48
2022-11-22T19:11:15.836Z,12.13
2022-11-22T19:13:43.105Z,13.30
2022-11-22T19:16:18.384Z,9.50
2022-11-22T19:18:45.351Z,16.90
2022-11-22T19:21:19.610Z,19.27
2022-11-22T19:23:46.992Z,13.25
2022-11-22T19:26:19.404Z,17.20
2022-11-22T19:28:47.863Z,11.00
2022-11-22T19:31:17.910Z,14.10
2022-11-22T19:33:44.944Z,11.20
2022-11-22T19:36:16.251Z,6.95
2022-11-22T19:38:43.244Z,9.05
2022-11-22T19:41:20.166Z,11.85
2022-11-22T19:43:47.136Z,11.38
2022-11-22T19:46:14.050Z,13.07
2022-11-22T19:48:46.619Z,13.23
2022-11-22T19:51:14.686Z,9.85
2022-11-22T19:53:42.081Z,16.20
2022-11-22T19:56:18.424Z,14.45
2022-11-22T19:58:50.022Z,15.02
2022-11-22T20:01:16.816Z,13.57
2022-11-22T20:03:43.813Z,15.65
2022-11-22T20:06:11.877Z,15.23
2022-11-22T20:08:40.065Z,15.57
2022-11-22T20:11:08.267Z,17.48
2022-11-22T20:13:36.349Z,17.00
2022-11-22T20:16:07.421Z,12.00
2022-11-22T20:18:34.370Z,10.02
2022-11-22T20:21:01.955Z,18.02
2022-11-22T20:23:29.560Z,9.90
2022-11-22T20:26:10.910Z,11.55
2022-11-22T20:28:38.373Z,10.95
2022-11-22T20:31:15.658Z,16.40
2022-11-22T20:33:43.876Z,10.35
2022-11-22T20:36:15.417Z,10.43
2022-11-22T20:38:45.574Z,15.43
2022-11-22T20:41:12.850Z,10.48
2022-11-22T20:43:39.648Z,14.52
2022-11-22T20:46:08.159Z,21.83
2022-11-22T20:48:35.667Z,10.70
2022-11-22T20:51:03.724Z,11.02
2022-11-22T20:53:30.429Z,10.38
2022-11-22T20:55:57.137Z,13.77
2022-11-22T20:58:24.258Z,17.20
2022-11-22T21:00:50.964Z,7.57
2022-11-22T21:03:17.664Z,8.68
2022-11-22T21:05:50.222Z,15.65
2022-11-22T21:08:16.929Z,9.35
2022-11-22T21:10:43.619Z,13.65
2022-11-22T21:13:10.369Z,14.05
2022-11-22T21:15:37.135Z,14.07
2022-11-22T21:18:24.668Z,10.45
2022-11-22T21:20:52.238Z,16.88
2022-11-22T21:23:18.908Z,13.30
2022-11-22T21:25:46.355Z,10.32
2022-11-22T21:28:13.164Z,16.35
2022-11-22T21:30:40.165Z,9.80
2022-11-22T21:33:07.592Z,18.45
2022-11-22T21:35:34.269Z,17.50
2022-11-22T21:38:02.193Z,11.60
2022-11-22T21:40:28.995Z,14.25
2022-11-22T21:42:55.795Z,17.85
2022-11-22T21:45:22.493Z,16.73
2022-11-22T21:47:49.777Z,12.98
2022-11-22T21:50:16.991Z,15.52
2022-11-22T21:52:43.721Z,14.80
2022-11-22T21:55:11.807Z,15.30
2022-11-22T21:57:38.590Z,13.35
2022-11-22T22:00:05.927Z,15.70
2022-11-22T22:02:33.070Z,16.23
2022-11-22T22:04:59.861Z,14.15
2022-11-22T22:10:14.356Z,10.57
2022-11-22T22:12:41.348Z,9.35
2022-11-22T22:15:12.324Z,13.60
2022-11-22T22:17:39.130Z,15.27
2022-11-22T22:20:06.466Z,12.05
2022-11-22T22:22:38.142Z,12.48
2022-11-22T22:25:05.693Z,13.45
2022-11-22T22:27:33.051Z,11.15
2022-11-22T22:30:00.086Z,13.27
2022-11-22T22:32:27.464Z,14.05
2022-11-22T22:34:54.254Z,21.73
2022-11-22T22:37:20.983Z,13.07
2022-11-22T22:39:47.894Z,12.50
2022-11-22T22:42:15.142Z,10.70
2022-11-22T22:44:41.857Z,13.38
2022-11-22T22:47:08.512Z,9.90
2022-11-22T22:49:35.172Z,11.48
2022-11-22T22:52:01.890Z,10.93
2022-11-22T22:54:28.606Z,9.38
2022-11-22T22:56:55.281Z,11.80
2022-11-22T22:59:22.136Z,13.82
2022-11-22T23:01:49.170Z,17.30
2022-11-22T23:04:15.976Z,16.40
2022-11-22T23:06:42.650Z,13.65
2022-11-22T23:09:10.503Z,7.78
2022-11-22T23:11:55.820Z,10.52
2022-11-22T23:14:24.299Z,7.97
2022-11-22T23:16:55.949Z,12.95
2022-11-22T23:19:24.301Z,10.23
2022-11-22T23:21:51.056Z,10.50
2022-11-22T23:24:17.816Z,9.15
2022-11-22T23:26:44.980Z,14.18
2022-11-22T23:29:11.988Z,9.95
2022-11-22T23:31:40.067Z,9.32
2022-11-22T23:34:06.897Z,10.45
2022-11-22T23:36:38.940Z,11.10
2022-11-22T23:39:07.590Z,10.40
2022-11-22T23:41:34.332Z,20.23
2022-11-22T23:44:01.439Z,12.00
2022-11-22T23:46:28.830Z,17.08
2022-11-22T23:48:57.331Z,7.65
2022-11-22T23:51:24.206Z,15.70
2022-11-22T23:53:55.061Z,6.45
2022-11-22T23:56:22.186Z,9.45
2022-11-22T23:58:49.341Z,11.65
